Time;durP1;ratioP1;P1;durP2;ratioP2;P2;SDS_P1;SDS_P2;PMS_P1;PMS_P2;Temp;Humidity;BMP_temperature;BMP_pressure;BME280_temperature;BME280_humidity;BME280_pressure;Samples;Min_cycle;Max_cycle;Signal;HPM_P1;HPM_P2
2024/01/20 00:00:31;;;;;;;23.70;20.77;;;0.10;99.90;;;;;;4966336;28;20051;-35
2024/01/20 00:02:57;;;;;;;24.58;22.00;;;0.10;99.90;;;;;;4956619;28;20165;-35
2024/01/20 00:05:23;;;;;;;25.02;22.35;;;0.10;99.90;;;;;;4949163;28;20058;-34
2024/01/20 00:07:48;;;;;;;28.30;25.33;;;0.10;99.90;;;;;;4967409;28;20122;-35
2024/01/20 00:10:14;;;;;;;25.63;22.90;;;0.10;99.90;;;;;;4966667;28;20482;-35
2024/01/20 00:12:42;;;;;;;29.25;26.45;;;0.10;99.90;;;;;;4968310;28;20063;-34
2024/01/20 00:15:08;;;;;;;24.75;22.35;;;0.10;99.90;;;;;;4968180;28;20109;-34
2024/01/20 00:17:35;;;;;;;24.85;21.80;;;0.10;99.90;;;;;;4967418;28;20055;-34
2024/01/20 00:20:01;;;;;;;27.30;22.05;;;0.00;99.90;;;;;;4957706;28;20055;-34
2024/01/20 00:22:27;;;;;;;27.33;24.52;;;0.00;99.90;;;;;;4962919;28;20051;-35
2024/01/20 00:24:53;;;;;;;30.50;27.52;;;0.00;99.90;;;;;;4969237;28;20046;-35
2024/01/20 00:27:19;;;;;;;25.83;23.17;;;0.00;99.90;;;;;;4984838;28;20514;-35
2024/01/20 00:29:44;;;;;;;29.55;24.65;;;0.00;99.90;;;;;;4984037;28;20180;-35
2024/01/20 00:32:10;;;;;;;30.73;27.55;;;0.00;99.90;;;;;;4983174;28;20408;-35
2024/01/20 00:34:35;;;;;;;29.98;26.58;;;-0.10;99.90;;;;;;4980109;28;20180;-34
2024/01/20 00:37:03;;;;;;;29.88;26.83;;;-0.10;99.90;;;;;;4965908;28;20058;-34
2024/01/20 00:39:29;;;;;;;30.73;27.80;;;-0.10;99.90;;;;;;4971362;28;20058;-34
2024/01/20 00:41:55;;;;;;;31.33;28.40;;;-0.10;99.90;;;;;;4982006;28;20519;-33
2024/01/20 00:44:20;;;;;;;32.50;29.35;;;-0.10;99.90;;;;;;4983672;28;20431;-33
2024/01/20 00:46:46;;;;;;;33.92;30.45;;;-0.10;99.90;;;;;;4985502;28;20042;-33
2024/01/20 00:49:12;;;;;;;33.58;30.58;;;-0.10;99.90;;;;;;4982974;28;20477;-33
2024/01/20 00:51:38;;;;;;;35.75;31.98;;;-0.10;99.90;;;;;;4984903;28;20042;-33
2024/01/20 00:54:03;;;;;;;34.00;30.95;;;-0.20;99.90;;;;;;4983030;28;20108;-33
2024/01/20 00:56:30;;;;;;;35.67;32.38;;;-0.20;99.90;;;;;;4977655;28;20104;-33
2024/01/20 00:58:55;;;;;;;37.78;34.40;;;-0.20;99.90;;;;;;4981776;28;20450;-33
2024/01/20 01:01:21;;;;;;;37.50;34.15;;;-0.30;99.90;;;;;;4986195;28;20112;-34
2024/01/20 01:03:47;;;;;;;36.13;32.92;;;-0.20;99.90;;;;;;4985154;28;20054;-35
2024/01/20 01:06:12;;;;;;;39.08;34.95;;;-0.20;99.90;;;;;;4987117;28;20888;-34
2024/01/20 01:08:38;;;;;;;35.95;32.50;;;-0.20;99.90;;;;;;4984860;28;20416;-35
2024/01/20 01:11:04;;;;;;;38.20;34.65;;;-0.20;99.90;;;;;;4966089;28;20062;-34
2024/01/20 01:13:29;;;;;;;39.70;36.13;;;-0.20;99.90;;;;;;4961556;28;20137;-35
2024/01/20 01:15:55;;;;;;;42.35;38.60;;;-0.30;99.90;;;;;;4983427;28;20050;-36
2024/01/20 01:18:21;;;;;;;42.20;38.35;;;-0.30;99.90;;;;;;4985258;28;20143;-35
2024/01/20 01:20:46;;;;;;;46.13;41.78;;;-0.30;99.90;;;;;;4950892;28;20084;-34
2024/01/20 01:23:12;;;;;;;42.88;39.10;;;-0.30;99.90;;;;;;4983796;28;20057;-34
2024/01/20 01:25:38;;;;;;;41.10;37.30;;;-0.20;99.90;;;;;;4961626;28;20534;-33
2024/01/20 01:28:04;;;;;;;44.80;40.78;;;-0.20;99.90;;;;;;4980254;28;20054;-34
2024/01/20 01:30:30;;;;;;;44.20;40.15;;;-0.30;99.90;;;;;;4983017;28;20058;-36
2024/01/20 01:32:55;;;;;;;47.00;42.75;;;-0.30;99.90;;;;;;4981400;28;20096;-35
2024/01/20 01:35:21;;;;;;;43.55;39.95;;;-0.30;99.90;;;;;;4982116;28;20050;-35
2024/01/20 01:37:47;;;;;;;41.33;37.63;;;-0.30;99.90;;;;;;4992357;28;20077;-34
2024/01/20 01:40:13;;;;;;;39.38;35.72;;;-0.20;99.90;;;;;;4985327;28;20046;-34
2024/01/20 01:42:38;;;;;;;43.38;39.72;;;-0.20;99.90;;;;;;4988845;28;20077;-34
2024/01/20 01:45:05;;;;;;;37.65;34.28;;;-0.20;99.90;;;;;;4985794;28;20500;-34
2024/01/20 01:47:31;;;;;;;40.08;36.30;;;-0.20;99.90;;;;;;4985724;28;20112;-33
2024/01/20 01:49:57;;;;;;;39.60;35.78;;;-0.10;99.90;;;;;;4986776;28;20042;-35
2024/01/20 01:52:23;;;;;;;40.65;37.00;;;-0.10;99.90;;;;;;4994213;28;20038;-34
2024/01/20 01:54:51;;;;;;;37.63;33.75;;;-0.10;99.90;;;;;;4993153;28;20050;-34
2024/01/20 01:57:17;;;;;;;39.45;35.88;;;-0.20;99.90;;;;;;4992410;28;20054;-34
2024/01/20 01:59:44;;;;;;;39.15;35.25;;;-0.20;99.90;;;;;;4970491;28;20447;-34
2024/01/20 02:02:10;;;;;;;37.42;34.03;;;-0.20;99.90;;;;;;4987544;28;20157;-34
2024/01/20 02:04:37;;;;;;;38.75;34.80;;;-0.20;99.90;;;;;;4984455;28;21553;-34
2024/01/20 02:07:03;;;;;;;39.90;36.50;;;-0.20;99.90;;;;;;4985764;28;20105;-34
2024/01/20 02:09:29;;;;;;;42.72;38.80;;;-0.30;99.90;;;;;;4992889;28;20133;-34
2024/01/20 02:11:56;;;;;;;45.42;41.53;;;-0.30;99.90;;;;;;4993804;28;20663;-33
2024/01/20 02:14:22;;;;;;;45.13;40.85;;;-0.40;99.90;;;;;;4973814;28;20108;-34
2024/01/20 02:16:47;;;;;;;43.45;39.63;;;-0.40;99.90;;;;;;4987465;28;20081;-33
2024/01/20 02:19:13;;;;;;;40.13;36.53;;;-0.40;99.90;;;;;;4988897;28;20050;-34
2024/01/20 02:21:41;;;;;;;44.58;40.40;;;-0.50;99.90;;;;;;4973129;28;20129;-34
2024/01/20 02:24:08;;;;;;;48.50;44.15;;;-0.50;99.90;;;;;;4989335;28;20097;-34
2024/01/20 02:26:34;;;;;;;45.95;42.08;;;-0.50;99.90;;;;;;4993666;28;20053;-34
2024/01/20 02:29:00;;;;;;;51.08;46.72;;;-0.60;99.90;;;;;;4991672;28;20120;-34
2024/01/20 02:31:26;;;;;;;53.70;49.17;;;-0.60;99.90;;;;;;4987462;28;20046;-34
2024/01/20 02:33:52;;;;;;;51.63;47.38;;;-0.60;99.90;;;;;;4986194;28;20580;-34
2024/01/20 02:36:17;;;;;;;53.00;48.85;;;-0.60;99.90;;;;;;4983447;28;20061;-33
2024/01/20 02:38:43;;;;;;;54.50;49.70;;;-0.70;99.90;;;;;;4985164;28;20152;-34
2024/01/20 02:41:09;;;;;;;51.58;47.13;;;-0.70;99.90;;;;;;4992791;28;20088;-35
2024/01/20 02:43:35;;;;;;;54.38;49.70;;;-0.70;99.90;;;;;;4985138;28;20393;-35
2024/01/20 02:46:01;;;;;;;51.20;46.47;;;-0.70;99.90;;;;;;4985427;28;20070;-34
2024/01/20 02:48:26;;;;;;;55.13;50.17;;;-0.80;99.90;;;;;;4990263;28;20053;-34
2024/01/20 02:50:52;;;;;;;52.50;48.40;;;-0.80;99.90;;;;;;4991570;28;20490;-33
2024/01/20 02:53:17;;;;;;;48.97;44.88;;;-0.80;99.90;;;;;;4991374;28;20059;-33
2024/01/20 02:55:43;;;;;;;52.60;48.15;;;-0.80;99.90;;;;;;4986712;28;20054;-34
2024/01/20 02:58:09;;;;;;;54.83;49.90;;;-0.80;99.90;;;;;;4988419;28;20420;-34
2024/01/20 03:00:34;;;;;;;50.83;46.45;;;-0.80;99.90;;;;;;4987942;28;20138;-35
2024/01/20 03:03:00;;;;;;;56.10;51.40;;;-0.90;99.90;;;;;;4987956;28;20066;-34
2024/01/20 03:05:26;;;;;;;50.40;45.88;;;-0.80;99.90;;;;;;4970582;28;21653;-34
2024/01/20 03:07:51;;;;;;;54.60;49.42;;;-0.80;99.90;;;;;;4987359;28;20057;-35
2024/01/20 03:10:17;;;;;;;46.63;42.05;;;-0.80;99.90;;;;;;4987346;28;20053;-34
2024/01/20 03:12:43;;;;;;;54.65;49.90;;;-0.80;99.90;;;;;;4987905;28;20050;-34
2024/01/20 03:15:09;;;;;;;46.53;42.13;;;-0.90;99.90;;;;;;4986538;28;20141;-34
2024/01/20 03:17:35;;;;;;;47.63;43.38;;;-0.80;99.90;;;;;;4987473;28;20050;-35
2024/01/20 03:20:01;;;;;;;51.47;47.00;;;-0.90;99.90;;;;;;4988893;28;20935;-34
2024/01/20 03:22:26;;;;;;;65.78;60.35;;;-0.90;99.90;;;;;;4965018;28;20050;-34
2024/01/20 03:24:52;;;;;;;56.10;50.65;;;-0.90;99.90;;;;;;4987085;28;20071;-35
2024/01/20 03:27:18;;;;;;;55.55;50.75;;;-0.90;99.90;;;;;;4986543;28;20054;-34
2024/01/20 03:29:44;;;;;;;49.38;44.67;;;-0.90;99.90;;;;;;4989301;28;20057;-34
2024/01/20 03:32:10;;;;;;;57.00;51.90;;;-0.80;99.90;;;;;;4988636;28;20054;-35
2024/01/20 03:34:37;;;;;;;56.45;51.72;;;-0.80;99.90;;;;;;4992526;28;20047;-35
2024/01/20 03:37:03;;;;;;;52.05;47.55;;;-0.80;99.90;;;;;;4989209;28;20061;-34
2024/01/20 03:39:28;;;;;;;57.88;52.97;;;-0.70;99.90;;;;;;4986476;28;20858;-35
2024/01/20 03:41:54;;;;;;;55.08;50.08;;;-0.80;99.90;;;;;;4984806;28;20053;-34
2024/01/20 03:44:20;;;;;;;55.22;50.05;;;-0.80;99.90;;;;;;4986778;28;20058;-34
2024/01/20 03:46:46;;;;;;;50.40;45.78;;;-0.70;99.90;;;;;;4986758;28;20141;-34
2024/01/20 03:49:12;;;;;;;54.05;48.83;;;-0.70;99.90;;;;;;4983598;28;20061;-34
2024/01/20 03:51:38;;;;;;;50.97;46.38;;;-0.70;99.90;;;;;;4983909;28;20066;-34
2024/01/20 03:54:04;;;;;;;52.38;47.45;;;-0.70;99.90;;;;;;4984698;28;20409;-34
2024/01/20 03:56:30;;;;;;;59.75;54.70;;;-0.80;99.90;;;;;;4987908;28;20081;-33
2024/01/20 03:58:56;;;;;;;54.53;49.83;;;-0.80;99.90;;;;;;4989621;28;20046;-33
2024/01/20 04:01:22;;;;;;;57.03;52.15;;;-0.90;99.90;;;;;;4972103;28;20547;-35
2024/01/20 04:03:48;;;;;;;57.63;52.35;;;-0.90;99.90;;;;;;4987134;28;20050;-33
2024/01/20 04:06:13;;;;;;;63.20;57.58;;;-0.90;99.90;;;;;;4976503;28;20424;-34
2024/01/20 04:08:39;;;;;;;60.13;54.45;;;-0.90;99.90;;;;;;4984596;28;20497;-34
2024/01/20 04:11:05;;;;;;;55.40;49.72;;;-1.00;99.90;;;;;;4983897;28;20054;-35
2024/01/20 04:13:31;;;;;;;58.33;52.72;;;-1.00;99.90;;;;;;4986734;28;20060;-34
2024/01/20 04:15:56;;;;;;;59.33;53.53;;;-1.10;99.90;;;;;;4983700;28;20522;-34
2024/01/20 04:18:22;;;;;;;63.88;58.50;;;-1.10;99.90;;;;;;4980917;28;20560;-36
2024/01/20 04:20:48;;;;;;;66.90;61.30;;;-1.00;99.90;;;;;;4983968;28;20092;-35
2024/01/20 04:23:13;;;;;;;64.03;57.60;;;-1.00;99.90;;;;;;4985600;28;20128;-35
2024/01/20 04:25:39;;;;;;;55.75;50.38;;;-1.00;99.90;;;;;;4984579;28;20391;-34
2024/01/20 04:28:06;;;;;;;61.60;55.58;;;-1.10;99.90;;;;;;4985052;28;20523;-33
2024/01/20 04:30:32;;;;;;;74.40;68.38;;;-1.10;99.90;;;;;;4983418;28;20149;-35
2024/01/20 04:32:57;;;;;;;59.58;54.53;;;-1.00;99.90;;;;;;4985150;28;20072;-35
2024/01/20 04:35:23;;;;;;;63.65;58.03;;;-1.10;99.90;;;;;;4981829;28;20168;-35
2024/01/20 04:37:49;;;;;;;58.45;52.78;;;-1.00;99.90;;;;;;4980751;28;20120;-35
2024/01/20 04:40:14;;;;;;;55.35;49.90;;;-1.00;99.90;;;;;;4979040;28;20511;-35
2024/01/20 04:42:40;;;;;;;57.88;52.53;;;-1.00;99.90;;;;;;4967417;28;20046;-35
2024/01/20 04:45:07;;;;;;;59.72;54.17;;;-1.10;99.90;;;;;;4980778;28;20386;-35
2024/01/20 04:47:33;;;;;;;54.40;48.47;;;-1.10;99.90;;;;;;4962140;28;20110;-33
2024/01/20 04:49:58;;;;;;;52.60;47.45;;;-1.00;99.90;;;;;;4966504;28;20481;-34
2024/01/20 04:52:24;;;;;;;61.30;55.78;;;-1.00;99.90;;;;;;4967089;28;20130;-35
2024/01/20 04:54:52;;;;;;;54.33;48.42;;;-1.10;99.90;;;;;;4980294;28;20057;-35
2024/01/20 04:57:21;;;;;;;55.78;49.90;;;-1.10;99.90;;;;;;4982942;28;20052;-35
2024/01/20 04:59:49;;;;;;;55.28;49.83;;;-1.00;99.90;;;;;;4981891;28;20056;-34
2024/01/20 05:02:15;;;;;;;58.75;53.53;;;-1.10;99.90;;;;;;4978604;28;20054;-34
2024/01/20 05:04:41;;;;;;;66.18;60.30;;;-1.10;99.90;;;;;;4985866;28;20419;-35
2024/01/20 05:07:06;;;;;;;55.00;49.97;;;-1.10;99.90;;;;;;4983281;28;20506;-34
2024/01/20 05:09:32;;;;;;;54.40;49.10;;;-1.10;99.90;;;;;;4981831;28;20034;-35
2024/01/20 05:11:58;;;;;;;69.50;63.22;;;-1.10;99.90;;;;;;4987496;28;20185;-34
2024/01/20 05:14:24;;;;;;;57.58;52.13;;;-1.10;99.90;;;;;;4985452;28;20046;-34
2024/01/20 05:16:49;;;;;;;58.15;52.95;;;-1.00;99.90;;;;;;4990089;28;20042;-34
2024/01/20 05:19:15;;;;;;;49.70;44.53;;;-1.00;99.90;;;;;;4984360;28;20054;-34
2024/01/20 05:21:40;;;;;;;50.85;45.60;;;-1.00;99.90;;;;;;4985692;28;20059;-34
2024/01/20 05:24:06;;;;;;;46.67;42.15;;;-1.10;99.90;;;;;;4986453;28;20049;-35
2024/01/20 05:26:32;;;;;;;47.10;42.03;;;-1.00;99.90;;;;;;4985871;28;20145;-34
2024/01/20 05:28:58;;;;;;;50.75;45.63;;;-1.10;99.90;;;;;;4986259;28;20046;-34
2024/01/20 05:31:24;;;;;;;51.03;45.95;;;-1.10;99.90;;;;;;4984937;28;20412;-34
2024/01/20 05:33:50;;;;;;;57.55;52.40;;;-1.00;99.90;;;;;;4984264;28;20790;-34
2024/01/20 05:36:16;;;;;;;45.90;40.80;;;-1.10;99.90;;;;;;4982365;28;20052;-34
2024/01/20 05:38:42;;;;;;;67.38;61.40;;;-1.10;99.90;;;;;;4981786;28;20054;-34
2024/01/20 05:41:08;;;;;;;51.13;46.13;;;-1.10;99.90;;;;;;4985914;28;20057;-35
2024/01/20 05:43:33;;;;;;;48.35;43.55;;;-1.10;99.90;;;;;;4985681;28;20524;-35
2024/01/20 05:46:03;;;;;;;50.75;45.63;;;-1.10;99.90;;;;;;4983902;28;20069;-33
2024/01/20 05:48:30;;;;;;;47.30;42.33;;;-1.10;99.90;;;;;;4982296;28;20057;-34
2024/01/20 05:50:56;;;;;;;49.83;44.50;;;-1.10;99.90;;;;;;4984783;28;20495;-34
2024/01/20 05:53:22;;;;;;;51.80;46.35;;;-1.10;99.90;;;;;;4983618;28;20065;-34
2024/01/20 05:55:47;;;;;;;52.65;47.70;;;-1.10;99.90;;;;;;4985569;28;20050;-35
2024/01/20 05:58:14;;;;;;;47.55;42.55;;;-1.10;99.90;;;;;;4980302;28;20050;-35
2024/01/20 06:00:40;;;;;;;54.92;49.95;;;-1.10;99.90;;;;;;4983957;28;20092;-34
2024/01/20 06:03:06;;;;;;;45.00;40.30;;;-1.00;99.90;;;;;;4985709;28;20056;-34
2024/01/20 06:05:32;;;;;;;53.08;47.50;;;-1.10;99.90;;;;;;4981883;28;20081;-35
2024/01/20 06:07:58;;;;;;;56.05;50.90;;;-1.10;99.90;;;;;;4980717;28;20142;-34
2024/01/20 06:10:24;;;;;;;40.35;36.67;;;-1.10;99.90;;;;;;4985571;28;20482;-33
2024/01/20 06:12:50;;;;;;;46.72;42.03;;;-1.10;99.90;;;;;;4984912;28;20434;-34
2024/01/20 06:15:16;;;;;;;48.47;43.70;;;-1.10;99.90;;;;;;4982711;28;20050;-35
2024/01/20 06:17:41;;;;;;;48.25;43.45;;;-1.10;99.90;;;;;;4983988;28;20466;-33
2024/01/20 06:20:07;;;;;;;37.35;33.78;;;-1.10;99.90;;;;;;4984408;28;20049;-34
2024/01/20 06:22:33;;;;;;;54.15;48.80;;;-1.10;99.90;;;;;;4982766;28;20096;-34
2024/01/20 06:24:59;;;;;;;46.63;41.65;;;-1.10;99.90;;;;;;4984738;28;20392;-35
2024/01/20 06:27:24;;;;;;;48.10;43.40;;;-1.10;99.90;;;;;;4982721;28;20054;-34
2024/01/20 06:29:50;;;;;;;55.83;50.42;;;-1.10;99.90;;;;;;4984705;28;20140;-34
2024/01/20 06:32:17;;;;;;;45.05;40.53;;;-1.10;99.90;;;;;;4981986;28;20556;-33
2024/01/20 06:34:42;;;;;;;52.20;47.40;;;-1.10;99.90;;;;;;4968716;28;20039;-34
2024/01/20 06:37:08;;;;;;;44.40;39.70;;;-1.10;99.90;;;;;;4993563;28;20116;-34
2024/01/20 06:39:34;;;;;;;52.88;48.08;;;-1.10;99.90;;;;;;4984606;28;20046;-34
2024/01/20 06:42:00;;;;;;;42.53;37.92;;;-1.10;99.90;;;;;;4987819;28;20144;-33
2024/01/20 06:44:26;;;;;;;41.72;37.55;;;-1.10;99.90;;;;;;4982798;28;20145;-34
2024/01/20 06:46:51;;;;;;;47.15;42.85;;;-1.00;99.90;;;;;;4988025;28;20518;-34
2024/01/20 06:49:17;;;;;;;43.83;40.03;;;-1.10;99.90;;;;;;4976474;28;20061;-35
2024/01/20 06:51:43;;;;;;;38.30;33.05;;;-1.00;99.90;;;;;;4985082;28;20097;-33
2024/01/20 06:54:09;;;;;;;51.60;46.72;;;-1.00;99.90;;;;;;4983077;28;20108;-34
2024/01/20 06:56:35;;;;;;;34.45;30.88;;;-1.00;99.90;;;;;;4982836;28;20054;-33
2024/01/20 06:59:01;;;;;;;48.35;43.70;;;-1.00;99.90;;;;;;4984181;28;20062;-33
2024/01/20 07:01:26;;;;;;;39.10;35.05;;;-1.00;99.90;;;;;;4983048;28;20604;-33
2024/01/20 07:03:52;;;;;;;40.60;36.38;;;-1.00;99.90;;;;;;4983874;28;21190;-34
2024/01/20 07:06:27;;;;;;;41.90;36.80;;;-1.00;99.90;;;;;;4965833;28;20050;-33
2024/01/20 07:08:54;;;;;;;52.38;47.47;;;-1.00;99.90;;;;;;4981936;28;20048;-34
2024/01/20 07:11:20;;;;;;;42.58;38.17;;;-1.00;99.90;;;;;;4984353;28;20050;-34
2024/01/20 07:13:46;;;;;;;47.22;42.63;;;-1.10;99.90;;;;;;4983816;28;20046;-32
2024/01/20 07:16:13;;;;;;;44.08;39.78;;;-1.00;99.90;;;;;;4981858;28;20061;-35
2024/01/20 07:18:39;;;;;;;41.88;37.50;;;-1.00;99.90;;;;;;4982999;28;20547;-33
2024/01/20 07:21:06;;;;;;;40.83;35.95;;;-1.00;99.90;;;;;;4984288;28;20112;-33
2024/01/20 07:23:32;;;;;;;43.15;38.60;;;-1.00;99.90;;;;;;4983738;28;20054;-33
2024/01/20 07:25:58;;;;;;;43.72;39.20;;;-1.10;99.90;;;;;;4981873;28;20642;-34
2024/01/20 07:28:25;;;;;;;51.88;46.58;;;-1.10;99.90;;;;;;4987893;28;20050;-34
2024/01/20 07:30:50;;;;;;;40.47;35.47;;;-1.10;99.90;;;;;;4982822;28;20467;-34
2024/01/20 07:33:16;;;;;;;36.83;32.88;;;-1.10;99.90;;;;;;4984224;28;20085;-34
2024/01/20 07:35:42;;;;;;;38.67;34.88;;;-1.00;99.90;;;;;;4983300;28;20095;-33
2024/01/20 07:38:07;;;;;;;39.45;35.15;;;-1.00;99.90;;;;;;4984320;28;20132;-34
2024/01/20 07:40:33;;;;;;;36.47;32.65;;;-1.00;99.90;;;;;;4983708;28;20130;-34
2024/01/20 07:42:59;;;;;;;41.10;32.58;;;-1.00;99.90;;;;;;4984749;28;20129;-34
2024/01/20 07:45:26;;;;;;;47.50;42.70;;;-0.90;99.90;;;;;;4981017;28;20539;-34
2024/01/20 07:47:52;;;;;;;43.03;36.30;;;-0.90;99.90;;;;;;4984140;28;20416;-34
2024/01/20 07:50:18;;;;;;;41.97;38.00;;;-0.90;99.90;;;;;;4984800;28;20050;-34
2024/01/20 07:52:44;;;;;;;38.67;34.15;;;-0.90;99.90;;;;;;4985427;28;20613;-34
2024/01/20 07:55:09;;;;;;;43.67;39.30;;;-0.80;99.90;;;;;;4984633;28;20058;-33
2024/01/20 07:57:36;;;;;;;39.85;34.60;;;-0.80;99.90;;;;;;4983099;28;20096;-34
2024/01/20 08:00:02;;;;;;;40.05;35.67;;;-0.70;99.90;;;;;;4985292;28;20050;-34
2024/01/20 08:02:27;;;;;;;41.65;37.70;;;-0.70;99.90;;;;;;4985696;28;20858;-34
2024/01/20 08:04:53;;;;;;;40.63;33.15;;;-0.60;99.90;;;;;;4985923;28;20051;-35
2024/01/20 08:07:19;;;;;;;38.78;34.13;;;-0.60;99.90;;;;;;4988001;28;20410;-34
2024/01/20 08:09:45;;;;;;;39.70;35.45;;;-0.50;99.90;;;;;;4985166;28;20085;-33
2024/01/20 08:12:10;;;;;;;37.38;33.45;;;-0.50;99.90;;;;;;4985210;28;20054;-35
2024/01/20 08:14:36;;;;;;;45.72;40.92;;;-0.40;99.90;;;;;;4986602;28;20046;-35
2024/01/20 08:17:02;;;;;;;31.58;28.23;;;-0.30;99.90;;;;;;4983171;28;20054;-34
2024/01/20 08:19:28;;;;;;;34.55;27.73;;;-0.30;99.90;;;;;;4981082;28;20050;-33
2024/01/20 08:21:54;;;;;;;37.10;32.63;;;-0.30;99.90;;;;;;4985419;28;20057;-33
2024/01/20 08:24:20;;;;;;;36.40;32.28;;;-0.20;99.90;;;;;;4982196;28;20503;-33
2024/01/20 08:26:45;;;;;;;33.67;30.15;;;-0.20;99.90;;;;;;4982851;28;20058;-34
2024/01/20 08:29:11;;;;;;;35.08;31.48;;;-0.10;99.90;;;;;;4986369;28;20058;-33
2024/01/20 08:31:37;;;;;;;36.25;32.38;;;-0.10;99.90;;;;;;4981405;28;20485;-33
2024/01/20 08:34:03;;;;;;;32.35;28.92;;;0.00;99.90;;;;;;4985363;28;20065;-33
2024/01/20 08:36:29;;;;;;;34.08;27.90;;;0.10;99.90;;;;;;4981738;28;20049;-34
2024/01/20 08:38:55;;;;;;;34.45;29.48;;;0.10;99.90;;;;;;4986508;28;20504;-33
2024/01/20 08:41:21;;;;;;;32.60;26.23;;;0.10;99.90;;;;;;4979208;28;20185;-33
2024/01/20 08:43:47;;;;;;;32.13;25.70;;;0.10;99.90;;;;;;4983150;28;20132;-34
2024/01/20 08:46:13;;;;;;;29.95;23.92;;;0.10;99.90;;;;;;4981411;28;20141;-32
2024/01/20 08:48:39;;;;;;;31.08;26.65;;;0.20;99.90;;;;;;4979518;28;20535;-33
2024/01/20 08:51:05;;;;;;;32.75;25.40;;;0.20;99.90;;;;;;4978363;28;20077;-32
2024/01/20 08:53:32;;;;;;;28.80;24.35;;;0.20;99.90;;;;;;4984250;28;20157;-32
2024/01/20 08:55:58;;;;;;;31.65;24.23;;;0.30;99.90;;;;;;4986640;28;20121;-33
2024/01/20 08:58:24;;;;;;;30.50;22.33;;;0.30;99.90;;;;;;4982163;28;20050;-34
2024/01/20 09:00:50;;;;;;;27.77;21.65;;;0.30;99.90;;;;;;4985057;28;20117;-33
2024/01/20 09:03:16;;;;;;;29.90;23.63;;;0.30;99.90;;;;;;4987145;28;20611;-34
2024/01/20 09:05:42;;;;;;;31.55;22.83;;;0.30;99.90;;;;;;4983169;28;20043;-33
2024/01/20 09:08:09;;;;;;;30.45;22.40;;;0.30;99.90;;;;;;4987450;28;20055;-32
2024/01/20 09:10:36;;;;;;;28.40;22.02;;;0.30;99.90;;;;;;4984729;28;20496;-33
2024/01/20 09:13:03;;;;;;;26.67;19.15;;;0.30;99.90;;;;;;4985822;28;20050;-32
2024/01/20 09:15:29;;;;;;;29.65;23.85;;;0.30;99.90;;;;;;4985818;28;20054;-33
2024/01/20 09:17:54;;;;;;;31.65;21.20;;;0.40;99.90;;;;;;4977615;28;20046;-33
2024/01/20 09:20:20;;;;;;;31.70;20.48;;;0.40;99.90;;;;;;4983881;28;20046;-34
2024/01/20 09:22:46;;;;;;;28.40;20.75;;;0.40;99.90;;;;;;4980720;28;20120;-34
2024/01/20 09:25:12;;;;;;;23.85;18.15;;;0.40;99.90;;;;;;4983671;28;20046;-34
2024/01/20 09:27:37;;;;;;;26.67;19.15;;;0.50;99.90;;;;;;4981248;28;20046;-34
2024/01/20 09:30:05;;;;;;;30.10;18.42;;;0.40;99.90;;;;;;4955704;28;20424;-33
2024/01/20 09:32:33;;;;;;;25.48;17.80;;;0.50;99.90;;;;;;4974377;28;20051;-34
2024/01/20 09:35:05;;;;;;;29.02;18.85;;;0.60;99.90;;;;;;4977867;28;20704;-32
2024/01/20 09:37:31;;;;;;;29.65;20.88;;;0.60;99.90;;;;;;4976264;28;20054;-33
2024/01/20 09:39:57;;;;;;;27.42;19.20;;;0.60;99.90;;;;;;4978548;28;20081;-34
2024/01/20 09:42:23;;;;;;;26.10;18.13;;;0.60;99.90;;;;;;4975248;28;20428;-33
2024/01/20 09:44:50;;;;;;;28.27;19.40;;;0.70;99.90;;;;;;4986149;28;20054;-34
2024/01/20 09:47:17;;;;;;;29.38;19.95;;;0.60;99.90;;;;;;4986968;28;20061;-34
2024/01/20 09:49:43;;;;;;;26.05;19.67;;;0.70;99.90;;;;;;4985522;28;20058;-33
2024/01/20 09:52:23;;;;;;;26.38;19.00;;;0.70;99.90;;;;;;4981300;28;20523;-33
2024/01/20 09:54:57;;;;;;;26.88;21.27;;;0.70;99.90;;;;;;4979971;28;20150;-33
2024/01/20 09:57:23;;;;;;;28.38;21.40;;;0.80;99.90;;;;;;4980964;28;20055;-33
2024/01/20 09:59:51;;;;;;;28.33;21.45;;;0.80;99.90;;;;;;4990021;28;20488;-34
2024/01/20 10:02:19;;;;;;;30.92;20.50;;;0.80;99.90;;;;;;4985861;28;20108;-33
2024/01/20 10:04:48;;;;;;;24.13;18.13;;;0.90;99.90;;;;;;4979893;28;20043;-34
2024/01/20 10:07:28;;;;;;;29.10;24.25;;;0.90;99.90;;;;;;4964294;28;20061;-33
2024/01/20 10:09:53;;;;;;;25.98;23.05;;;0.90;99.90;;;;;;4976966;28;20050;-33
2024/01/20 10:12:19;;;;;;;28.92;22.35;;;0.90;99.90;;;;;;4980698;28;20050;-33
2024/01/20 10:14:45;;;;;;;27.48;22.02;;;1.00;99.90;;;;;;4978436;28;20050;-33
2024/01/20 10:17:11;;;;;;;25.85;20.45;;;1.00;99.90;;;;;;4984739;28;20076;-33
2024/01/20 10:19:38;;;;;;;30.60;27.38;;;1.10;99.90;;;;;;4980369;28;20515;-34
2024/01/20 10:22:10;;;;;;;29.20;25.17;;;1.10;99.90;;;;;;4980173;28;20050;-34
2024/01/20 10:24:52;;;;;;;32.53;26.02;;;1.10;99.90;;;;;;4983827;28;20077;-34
2024/01/20 10:27:19;;;;;;;32.08;28.67;;;1.20;99.90;;;;;;4981040;28;20530;-34
2024/01/20 10:29:46;;;;;;;29.85;26.70;;;1.30;99.90;;;;;;4984833;28;21071;-34
2024/01/20 10:32:13;;;;;;;26.00;18.70;;;1.30;99.90;;;;;;4984369;28;20481;-34
2024/01/20 10:34:38;;;;;;;26.00;19.73;;;1.30;99.90;;;;;;4979538;28;20065;-33
2024/01/20 10:37:14;;;;;;;28.85;19.05;;;1.30;99.90;;;;;;4984488;28;20058;-33
2024/01/20 10:39:45;;;;;;;26.77;19.23;;;1.30;99.90;;;;;;4986870;28;20054;-34
2024/01/20 10:42:13;;;;;;;24.27;18.88;;;1.30;99.90;;;;;;4980984;28;20475;-34
2024/01/20 10:44:55;;;;;;;28.23;20.65;;;1.30;99.90;;;;;;4984938;28;20165;-34
2024/01/20 10:47:34;;;;;;;28.77;24.45;;;1.30;99.90;;;;;;4987068;28;20539;-34
2024/01/20 10:50:08;;;;;;;29.55;24.38;;;1.30;99.90;;;;;;4983730;28;20050;-34
2024/01/20 10:52:35;;;;;;;25.63;22.50;;;1.30;99.90;;;;;;4980588;28;20055;-33
2024/01/20 10:55:02;;;;;;;27.40;22.23;;;1.30;99.90;;;;;;4961460;28;20058;-34
2024/01/20 10:57:28;;;;;;;26.85;22.67;;;1.30;99.90;;;;;;4996625;28;20041;-34
2024/01/20 10:59:56;;;;;;;31.05;21.98;;;1.30;99.90;;;;;;4997349;28;20096;-34
2024/01/20 11:02:23;;;;;;;28.30;21.20;;;1.30;99.90;;;;;;4992030;28;20042;-33
2024/01/20 11:04:49;;;;;;;29.98;22.73;;;1.30;99.90;;;;;;4981970;28;20050;-33
2024/01/20 11:07:22;;;;;;;30.00;22.92;;;1.40;99.90;;;;;;4988985;28;20570;-35
2024/01/20 11:09:59;;;;;;;30.75;25.98;;;1.40;99.90;;;;;;4982697;28;20559;-34
2024/01/20 11:12:26;;;;;;;28.67;23.17;;;1.40;99.90;;;;;;4982217;28;20054;-34
2024/01/20 11:14:54;;;;;;;30.00;23.00;;;1.40;99.90;;;;;;4991929;28;20485;-34
2024/01/20 11:17:21;;;;;;;29.38;22.40;;;1.40;99.90;;;;;;4977228;28;20049;-34
2024/01/20 11:19:47;;;;;;;29.10;22.90;;;1.50;99.90;;;;;;4989406;28;20046;-33
2024/01/20 11:22:32;;;;;;;29.30;20.75;;;1.50;99.90;;;;;;4984776;28;20097;-33
2024/01/20 11:25:04;;;;;;;30.02;22.45;;;1.50;99.90;;;;;;4963848;28;20054;-33
2024/01/20 11:27:29;;;;;;;30.10;24.97;;;1.50;99.90;;;;;;4982161;28;20050;-34
2024/01/20 11:30:06;;;;;;;28.88;22.70;;;1.50;99.90;;;;;;4982673;28;20046;-34
2024/01/20 11:32:33;;;;;;;30.27;23.08;;;1.60;99.90;;;;;;4986333;28;20056;-33
2024/01/20 11:35:00;;;;;;;33.63;23.35;;;1.60;99.90;;;;;;4983750;28;20491;-33
2024/01/20 11:37:27;;;;;;;27.35;20.95;;;1.60;99.90;;;;;;4983678;28;20078;-33
2024/01/20 11:40:04;;;;;;;26.50;21.10;;;1.60;99.90;;;;;;4985759;28;20049;-33
2024/01/20 11:42:32;;;;;;;28.45;21.80;;;1.60;99.90;;;;;;4985490;28;20054;-33
2024/01/20 11:44:57;;;;;;;27.13;20.90;;;1.70;99.90;;;;;;4963987;28;20113;-33
2024/01/20 11:47:23;;;;;;;30.73;21.77;;;1.70;99.90;;;;;;4972601;28;20047;-33
2024/01/20 11:49:53;;;;;;;28.42;20.05;;;1.80;99.90;;;;;;4991231;28;20046;-33
2024/01/20 11:52:20;;;;;;;25.63;18.55;;;1.80;99.90;;;;;;4986399;28;20043;-33
2024/01/20 11:54:45;;;;;;;24.48;17.85;;;1.80;99.90;;;;;;4982799;28;20050;-33
2024/01/20 11:57:31;;;;;;;22.83;16.40;;;1.80;99.90;;;;;;4978344;28;20402;-33
2024/01/20 11:59:58;;;;;;;28.38;17.63;;;1.80;99.90;;;;;;4980207;28;20560;-33
2024/01/20 12:02:24;;;;;;;23.95;16.15;;;1.80;99.90;;;;;;4980527;28;20290;-34
2024/01/20 12:04:50;;;;;;;25.90;16.88;;;1.80;99.90;;;;;;4985436;28;20463;-33
2024/01/20 12:07:17;;;;;;;24.42;15.70;;;1.90;99.90;;;;;;4981979;28;20481;-34
2024/01/20 12:09:46;;;;;;;25.33;15.90;;;1.90;99.90;;;;;;4983455;28;20129;-34
2024/01/20 12:12:13;;;;;;;24.35;16.52;;;1.90;99.90;;;;;;4983748;28;20113;-34
2024/01/20 12:14:46;;;;;;;21.73;15.32;;;2.00;99.90;;;;;;4982678;28;20046;-34
2024/01/20 12:17:12;;;;;;;24.63;16.40;;;2.00;99.90;;;;;;4988600;28;20118;-35
2024/01/20 12:19:40;;;;;;;22.63;16.67;;;2.00;99.90;;;;;;4985937;28;20054;-35
2024/01/20 12:22:10;;;;;;;24.15;16.02;;;2.00;99.90;;;;;;4985149;28;20051;-35
2024/01/20 12:24:37;;;;;;;22.92;16.45;;;2.10;99.90;;;;;;4982683;28;20054;-34
2024/01/20 12:27:04;;;;;;;23.90;16.88;;;2.20;99.90;;;;;;4960435;28;20156;-34